createdAt,value
2023-05-24T00:02:18.048Z,2.63
2023-05-24T00:04:45.682Z,2.93
2023-05-24T00:07:12.785Z,2.67
2023-05-24T00:09:39.778Z,2.70
2023-05-24T00:12:07.033Z,4.37
2023-05-24T00:14:34.252Z,4.27
2023-05-24T00:17:01.249Z,4.70
2023-05-24T00:19:29.349Z,2.60
2023-05-24T00:21:56.702Z,2.83
2023-05-24T00:24:23.721Z,2.37
2023-05-24T00:26:50.815Z,2.30
2023-05-24T00:29:17.855Z,2.30
2023-05-24T00:31:44.869Z,2.83
2023-05-24T00:34:12.989Z,2.00
2023-05-24T00:36:39.984Z,3.03
2023-05-24T00:39:07.100Z,2.73
2023-05-24T00:41:34.302Z,2.60
2023-05-24T00:44:01.379Z,2.17
2023-05-24T00:46:32.254Z,2.33
2023-05-24T00:49:00.955Z,3.13
2023-05-24T00:51:28.529Z,1.83
2023-05-24T00:53:56.196Z,2.50
2023-05-24T00:56:23.539Z,2.47
2023-05-24T00:58:54.906Z,2.97
2023-05-24T01:01:25.995Z,2.63
2023-05-24T01:03:54.521Z,2.53
2023-05-24T01:06:22.133Z,2.53
2023-05-24T01:09:07.969Z,2.00
2023-05-24T01:11:53.229Z,2.33
2023-05-24T01:14:49.941Z,2.90
2023-05-24T01:17:26.738Z,2.80
2023-05-24T01:20:09.191Z,3.27
2023-05-24T01:23:01.191Z,2.53
2023-05-24T01:25:53.914Z,2.00
2023-05-24T01:28:22.567Z,2.37
2023-05-24T01:30:49.787Z,2.27
2023-05-24T01:33:17.021Z,2.20
2023-05-24T01:35:44.012Z,2.83
2023-05-24T01:38:12.299Z,2.90
2023-05-24T01:40:40.632Z,2.80
2023-05-24T01:43:22.544Z,2.00
2023-05-24T01:46:15.418Z,2.67
2023-05-24T01:49:13.814Z,2.73
2023-05-24T01:51:49.936Z,2.50
2023-05-24T01:54:23.793Z,2.70
2023-05-24T01:56:53.929Z,2.97
2023-05-24T01:59:26.368Z,2.50
2023-05-24T02:01:54.878Z,3.00
2023-05-24T02:04:21.915Z,2.83
2023-05-24T02:06:48.946Z,2.67
2023-05-24T02:09:16.008Z,2.50
2023-05-24T02:11:43.126Z,3.30
2023-05-24T02:14:10.179Z,2.20
2023-05-24T02:16:42.977Z,2.70
2023-05-24T02:19:10.159Z,3.00
2023-05-24T02:21:37.169Z,2.80
2023-05-24T02:24:04.474Z,3.40
2023-05-24T02:26:31.540Z,3.10
2023-05-24T02:28:58.560Z,2.90
2023-05-24T02:31:29.171Z,2.50
2023-05-24T02:33:56.729Z,2.80
2023-05-24T02:36:24.419Z,2.63
2023-05-24T02:38:52.024Z,3.30
2023-05-24T02:41:19.506Z,2.77
2023-05-24T02:43:48.016Z,2.13
2023-05-24T02:46:15.756Z,2.40
2023-05-24T02:48:42.809Z,2.73
2023-05-24T02:51:09.837Z,2.50
2023-05-24T02:53:36.806Z,2.37
2023-05-24T02:56:03.904Z,2.73
2023-05-24T02:58:30.894Z,2.87
2023-05-24T03:00:57.939Z,2.60
2023-05-24T03:03:27.104Z,2.77
2023-05-24T03:05:54.138Z,2.87
2023-05-24T03:08:21.184Z,2.90
2023-05-24T03:10:48.182Z,2.30
2023-05-24T03:13:15.154Z,2.70
2023-05-24T03:15:43.078Z,2.43
2023-05-24T03:18:10.162Z,2.83
2023-05-24T03:20:37.598Z,3.30
2023-05-24T03:23:04.577Z,2.63
2023-05-24T03:25:31.570Z,2.67
2023-05-24T03:27:58.620Z,2.20
2023-05-24T03:30:25.574Z,3.20
2023-05-24T03:32:52.595Z,3.20
2023-05-24T03:35:19.727Z,2.70
2023-05-24T03:37:46.925Z,2.80
2023-05-24T03:40:14.296Z,2.77
2023-05-24T03:42:42.288Z,2.80
2023-05-24T03:45:09.880Z,2.40
2023-05-24T03:47:37.878Z,3.20
2023-05-24T03:50:05.254Z,2.23
2023-05-24T03:52:33.343Z,3.67
2023-05-24T03:55:00.461Z,3.10
2023-05-24T03:57:27.524Z,3.03
2023-05-24T03:59:54.467Z,3.90
2023-05-24T04:02:21.521Z,3.60
2023-05-24T04:04:48.567Z,3.60
2023-05-24T04:07:16.562Z,3.60
2023-05-24T04:09:43.883Z,3.37
2023-05-24T04:12:11.698Z,3.30
2023-05-24T04:14:38.633Z,3.50
2023-05-24T04:17:07.851Z,2.93
2023-05-24T04:19:34.904Z,2.97
2023-05-24T04:22:01.895Z,3.20
2023-05-24T04:24:28.903Z,2.50
2023-05-24T04:26:55.892Z,3.33
2023-05-24T04:29:26.702Z,3.57
2023-05-24T04:31:53.740Z,3.77
2023-05-24T04:34:22.509Z,4.33
2023-05-24T04:36:51.602Z,4.00
2023-05-24T04:39:19.055Z,3.10
2023-05-24T04:41:46.056Z,3.17
2023-05-24T04:44:13.068Z,3.70
2023-05-24T04:46:40.166Z,2.87
2023-05-24T04:49:08.536Z,3.33
2023-05-24T04:51:38.653Z,3.03
2023-05-24T04:54:09.251Z,3.47
2023-05-24T04:56:38.510Z,4.20
2023-05-24T04:59:06.484Z,4.33
2023-05-24T05:01:34.069Z,3.90
2023-05-24T05:04:01.313Z,3.93
2023-05-24T05:06:28.390Z,3.53
2023-05-24T05:08:55.369Z,3.67
2023-05-24T05:11:22.452Z,4.30
2023-05-24T05:13:49.419Z,4.20
2023-05-24T05:16:16.434Z,3.93
2023-05-24T05:18:43.473Z,3.80
2023-05-24T05:21:11.016Z,3.33
2023-05-24T05:23:39.940Z,3.40
2023-05-24T05:26:07.643Z,3.20
2023-05-24T05:28:34.694Z,2.80
2023-05-24T05:31:01.695Z,2.50
2023-05-24T05:33:28.868Z,2.63
2023-05-24T05:35:56.074Z,2.93
2023-05-24T05:38:23.168Z,3.07
2023-05-24T05:40:50.149Z,4.73
2023-05-24T05:43:17.256Z,5.50
2023-05-24T05:45:44.219Z,6.20
2023-05-24T05:48:11.340Z,8.43
2023-05-24T05:50:38.640Z,5.37
2023-05-24T05:53:05.575Z,5.87
2023-05-24T05:55:32.584Z,3.87
2023-05-24T05:57:59.546Z,3.73
2023-05-24T06:00:26.807Z,3.93
2023-05-24T06:02:53.864Z,3.20
2023-05-24T06:05:20.958Z,2.77
2023-05-24T06:07:48.976Z,3.17
2023-05-24T06:10:16.171Z,2.30
2023-05-24T06:12:43.292Z,2.40
2023-05-24T06:15:12.294Z,2.93
2023-05-24T06:17:39.458Z,2.50
2023-05-24T06:20:12.329Z,2.87
2023-05-24T06:22:39.969Z,2.70
2023-05-24T06:25:07.414Z,2.53
2023-05-24T06:27:34.481Z,2.17
2023-05-24T06:30:01.560Z,3.17
2023-05-24T06:32:28.649Z,2.20
2023-05-24T06:34:55.959Z,2.60
2023-05-24T06:37:25.688Z,2.73
2023-05-24T06:39:52.666Z,2.27
2023-05-24T06:42:19.714Z,2.30
2023-05-24T06:44:46.746Z,2.40
2023-05-24T06:47:13.861Z,2.67
2023-05-24T06:49:42.055Z,2.40
2023-05-24T06:52:10.050Z,2.70
2023-05-24T06:54:37.483Z,2.67
2023-05-24T06:57:05.470Z,2.80
2023-05-24T06:59:32.525Z,3.23
2023-05-24T07:02:01.266Z,2.70
2023-05-24T07:04:30.693Z,2.50
2023-05-24T07:06:58.547Z,2.73
2023-05-24T07:09:25.896Z,2.63
2023-05-24T07:11:53.273Z,2.70
2023-05-24T07:14:20.352Z,2.83
2023-05-24T07:16:48.244Z,2.73
2023-05-24T07:19:15.379Z,2.23
2023-05-24T07:21:42.558Z,2.10
2023-05-24T07:24:09.531Z,2.60
2023-05-24T07:26:36.817Z,1.93
2023-05-24T07:29:03.768Z,2.80
2023-05-24T07:31:32.659Z,3.00
2023-05-24T07:33:59.686Z,3.13
2023-05-24T07:36:27.145Z,2.80
2023-05-24T07:38:54.556Z,2.67
2023-05-24T07:41:29.423Z,2.10
2023-05-24T07:43:56.498Z,2.37
2023-05-24T07:46:23.595Z,2.60
2023-05-24T07:48:50.842Z,2.20
2023-05-24T07:51:17.901Z,2.63
2023-05-24T07:53:44.944Z,2.50
2023-05-24T07:56:13.331Z,2.37
2023-05-24T07:58:41.453Z,2.70
2023-05-24T08:01:09.198Z,2.40
2023-05-24T08:03:36.972Z,2.63
2023-05-24T08:06:04.256Z,2.30
2023-05-24T08:08:32.284Z,2.23
2023-05-24T08:10:59.292Z,2.40
2023-05-24T08:13:26.482Z,2.73
2023-05-24T08:15:53.570Z,1.87
2023-05-24T08:18:20.562Z,2.40
2023-05-24T08:20:47.583Z,2.60
2023-05-24T08:23:14.704Z,1.93
2023-05-24T08:25:42.050Z,2.53
2023-05-24T08:28:10.813Z,2.03
2023-05-24T08:30:38.272Z,2.60
2023-05-24T08:33:05.366Z,2.63
2023-05-24T08:35:32.361Z,2.37
2023-05-24T08:37:59.380Z,3.13
2023-05-24T08:40:26.427Z,2.47
2023-05-24T08:42:54.109Z,2.17
2023-05-24T08:45:22.739Z,2.70
2023-05-24T08:47:52.030Z,2.27
2023-05-24T08:50:20.554Z,2.63
2023-05-24T08:52:48.060Z,2.67
2023-05-24T08:55:15.827Z,2.20
2023-05-24T08:57:44.076Z,2.57
2023-05-24T09:00:13.094Z,2.00
2023-05-24T09:02:42.332Z,2.33
2023-05-24T09:05:22.011Z,2.30
2023-05-24T09:07:51.231Z,1.90
2023-05-24T09:10:21.697Z,1.97
2023-05-24T09:12:55.557Z,2.00
2023-05-24T09:15:22.647Z,2.47
2023-05-24T09:17:49.882Z,2.60
2023-05-24T09:20:16.942Z,2.60
2023-05-24T09:22:45.200Z,2.10
2023-05-24T09:25:15.130Z,2.73
2023-05-24T09:27:43.262Z,2.10
2023-05-24T09:30:12.872Z,1.90
2023-05-24T09:32:41.524Z,2.17
2023-05-24T09:35:10.433Z,1.70
2023-05-24T09:37:41.428Z,1.67
2023-05-24T09:40:20.179Z,1.90
2023-05-24T09:42:51.578Z,2.77
2023-05-24T09:45:18.735Z,2.17
2023-05-24T09:47:45.831Z,2.00
2023-05-24T09:50:15.993Z,1.93
2023-05-24T09:52:44.020Z,2.20
2023-05-24T09:55:19.421Z,1.73
2023-05-24T09:57:53.623Z,1.60
2023-05-24T10:00:25.219Z,2.70
2023-05-24T10:03:10.947Z,1.90
2023-05-24T10:05:39.185Z,1.60
2023-05-24T10:08:06.361Z,1.80
2023-05-24T10:10:34.169Z,1.67
2023-05-24T10:13:02.350Z,1.90
2023-05-24T10:15:30.920Z,1.80
2023-05-24T10:17:58.706Z,1.93
2023-05-24T10:20:26.952Z,1.80
2023-05-24T10:22:59.740Z,2.30
2023-05-24T10:25:28.617Z,1.83
2023-05-24T10:28:04.934Z,2.03
2023-05-24T10:30:37.898Z,2.00
2023-05-24T10:33:08.269Z,1.57
2023-05-24T10:35:38.420Z,1.87
2023-05-24T10:38:07.986Z,2.20
2023-05-24T10:40:35.769Z,1.83
2023-05-24T10:43:08.776Z,1.87
2023-05-24T10:45:41.296Z,1.50
2023-05-24T10:48:14.661Z,1.97
2023-05-24T10:50:43.403Z,1.70
2023-05-24T10:53:19.113Z,1.73
2023-05-24T10:56:09.659Z,1.57
2023-05-24T10:59:02.469Z,1.60
2023-05-24T11:01:32.367Z,1.30
2023-05-24T11:04:12.095Z,1.50
2023-05-24T11:06:49.681Z,1.70
2023-05-24T11:09:22.713Z,1.93
2023-05-24T11:12:09.858Z,1.30
2023-05-24T11:14:39.786Z,1.65
2023-05-24T11:17:08.300Z,2.10
2023-05-24T11:19:37.938Z,1.80
2023-05-24T11:22:08.221Z,1.43
2023-05-24T11:24:36.502Z,1.77
2023-05-24T11:27:03.886Z,2.00
2023-05-24T11:29:31.130Z,2.15
2023-05-24T11:32:05.423Z,1.75
2023-05-24T11:34:34.496Z,2.00
2023-05-24T11:37:03.138Z,1.77
2023-05-24T11:39:35.632Z,1.57
2023-05-24T11:42:06.599Z,2.20
2023-05-24T11:44:38.392Z,2.00
2023-05-24T11:47:07.656Z,2.00
2023-05-24T11:49:34.971Z,2.00
2023-05-24T11:52:02.771Z,1.70
2023-05-24T11:54:32.846Z,1.60
2023-05-24T11:57:00.328Z,1.70
2023-05-24T11:59:29.213Z,1.33
2023-05-24T12:02:05.691Z,1.40
2023-05-24T12:04:34.817Z,1.67
2023-05-24T12:07:03.202Z,1.93
2023-05-24T12:09:30.273Z,1.63
2023-05-24T12:11:58.788Z,2.13
2023-05-24T12:14:31.385Z,1.40
2023-05-24T12:16:59.120Z,1.57
2023-05-24T12:19:33.506Z,1.00
2023-05-24T12:22:06.691Z,1.53
2023-05-24T12:24:34.386Z,1.70
2023-05-24T12:27:03.513Z,2.27
2023-05-24T12:29:38.885Z,1.33
2023-05-24T12:32:11.965Z,1.63
2023-05-24T12:34:41.546Z,1.80
2023-05-24T12:37:09.618Z,1.80
2023-05-24T12:39:37.967Z,1.97
2023-05-24T12:42:05.243Z,1.90
2023-05-24T12:44:36.832Z,1.40
2023-05-24T12:47:05.606Z,1.87
2023-05-24T12:49:33.065Z,2.10
2023-05-24T12:52:02.064Z,1.80
2023-05-24T12:54:29.739Z,1.57
2023-05-24T12:56:57.916Z,1.90
2023-05-24T12:59:26.250Z,1.63
2023-05-24T13:01:53.634Z,2.03
2023-05-24T13:04:24.476Z,1.70
2023-05-24T13:06:51.649Z,1.80
2023-05-24T13:09:21.626Z,1.97
2023-05-24T13:11:49.364Z,2.13
2023-05-24T13:14:17.038Z,1.63
2023-05-24T13:16:44.620Z,1.67
2023-05-24T13:19:12.782Z,1.80
2023-05-24T13:21:40.032Z,1.77
2023-05-24T13:24:07.837Z,1.50
2023-05-24T13:26:37.665Z,1.70
2023-05-24T13:31:38.402Z,1.90
2023-05-24T13:34:06.068Z,1.97
2023-05-24T13:36:33.699Z,1.70
2023-05-24T13:41:31.756Z,1.90
2023-05-24T13:43:58.851Z,1.73
2023-05-24T13:46:26.050Z,1.70
2023-05-24T13:48:53.139Z,1.30
2023-05-24T13:51:20.195Z,1.80
2023-05-24T13:53:48.085Z,1.93
2023-05-24T13:56:16.312Z,2.20
2023-05-24T13:58:43.482Z,1.90
2023-05-24T14:01:11.198Z,2.10
2023-05-24T14:03:40.478Z,2.13
2023-05-24T14:06:08.726Z,3.03
2023-05-24T14:08:36.380Z,2.43
2023-05-24T14:11:03.443Z,1.80
2023-05-24T14:16:00.494Z,2.10
2023-05-24T14:18:27.639Z,2.50
2023-05-24T14:20:54.689Z,2.03
2023-05-24T14:23:21.774Z,1.77
2023-05-24T14:25:48.853Z,1.70
2023-05-24T14:28:15.836Z,1.80
2023-05-24T14:30:42.776Z,2.13
2023-05-24T14:33:12.157Z,1.70
2023-05-24T14:35:40.261Z,2.10
2023-05-24T14:38:08.935Z,1.70
2023-05-24T14:40:37.864Z,2.03
2023-05-24T14:43:06.277Z,2.20
2023-05-24T14:45:33.891Z,2.27
2023-05-24T14:48:01.550Z,2.47
2023-05-24T14:50:28.668Z,2.40
2023-05-24T14:52:55.854Z,2.00
2023-05-24T14:55:23.272Z,2.00
2023-05-24T14:57:50.491Z,2.07
2023-05-24T15:00:20.565Z,2.60
2023-05-24T15:02:49.481Z,1.90
2023-05-24T15:05:16.910Z,2.20
2023-05-24T15:07:43.927Z,1.73
2023-05-24T15:10:11.430Z,1.80
2023-05-24T15:12:38.403Z,2.07
2023-05-24T15:15:06.888Z,2.23
2023-05-24T15:17:34.080Z,2.83
2023-05-24T15:20:01.179Z,2.47
2023-05-24T15:22:28.154Z,2.47
2023-05-24T15:24:55.464Z,2.27
2023-05-24T15:27:22.558Z,1.83
2023-05-24T15:29:50.469Z,2.03
2023-05-24T15:32:17.447Z,2.20
2023-05-24T15:34:44.429Z,1.93
2023-05-24T15:37:11.403Z,2.50
2023-05-24T15:39:38.354Z,3.23
2023-05-24T15:42:06.063Z,3.37
2023-05-24T15:44:33.169Z,2.30
2023-05-24T15:47:00.347Z,2.37
2023-05-24T15:49:28.436Z,2.13
2023-05-24T15:52:03.098Z,2.60
2023-05-24T15:54:31.231Z,2.57
2023-05-24T15:56:58.289Z,1.97
2023-05-24T15:59:25.262Z,2.00
2023-05-24T16:01:52.397Z,2.03
2023-05-24T16:04:19.416Z,2.63
2023-05-24T16:06:47.244Z,2.47
2023-05-24T16:09:14.232Z,2.00
2023-05-24T16:11:41.606Z,1.60
2023-05-24T16:14:08.641Z,2.07
2023-05-24T16:16:36.759Z,2.20
2023-05-24T16:19:03.833Z,2.50
2023-05-24T16:21:33.043Z,2.10
2023-05-24T16:24:01.873Z,3.10
2023-05-24T16:26:32.412Z,3.47
2023-05-24T16:28:59.820Z,3.30
2023-05-24T16:31:27.065Z,2.97
2023-05-24T16:33:54.154Z,2.60
2023-05-24T16:36:21.410Z,1.93
2023-05-24T16:38:48.456Z,2.33
2023-05-24T16:41:15.430Z,2.43
2023-05-24T16:43:42.519Z,2.40
2023-05-24T16:46:11.024Z,2.50
2023-05-24T16:48:38.332Z,2.27
2023-05-24T16:51:05.541Z,1.93
2023-05-24T16:53:32.554Z,1.90
2023-05-24T16:55:59.633Z,2.33
2023-05-24T16:58:28.266Z,3.10
2023-05-24T17:00:56.708Z,2.53
2023-05-24T17:03:28.871Z,3.07
2023-05-24T17:05:59.495Z,2.37
2023-05-24T17:08:28.484Z,2.50
2023-05-24T17:10:59.143Z,2.50
2023-05-24T17:13:30.205Z,2.90
2023-05-24T17:16:00.058Z,2.57
2023-05-24T17:18:30.134Z,2.20
2023-05-24T17:21:02.905Z,2.53
2023-05-24T17:23:35.078Z,2.53
2023-05-24T17:26:03.030Z,2.00
2023-05-24T17:28:30.284Z,2.13
2023-05-24T17:30:59.279Z,2.47
2023-05-24T17:33:30.390Z,2.73
2023-05-24T17:35:57.767Z,2.73
2023-05-24T17:38:25.707Z,2.30
2023-05-24T17:40:59.494Z,2.73
2023-05-24T17:43:32.766Z,2.30
2023-05-24T17:46:04.135Z,2.23
2023-05-24T17:48:38.275Z,2.00
2023-05-24T17:51:08.368Z,1.93
2023-05-24T17:53:36.479Z,2.63
2023-05-24T17:56:04.833Z,3.43
2023-05-24T17:58:36.042Z,3.60
2023-05-24T18:01:08.635Z,3.40
2023-05-24T18:03:37.306Z,2.37
2023-05-24T18:06:07.357Z,2.73
2023-05-24T18:08:41.076Z,2.33
2023-05-24T18:11:08.693Z,4.13
2023-05-24T18:13:37.399Z,3.60
2023-05-24T18:16:04.625Z,2.40
2023-05-24T18:18:31.682Z,2.63
2023-05-24T18:20:58.936Z,2.80
2023-05-24T18:23:26.030Z,2.43
2023-05-24T18:26:00.978Z,2.40
2023-05-24T18:28:29.316Z,2.87
2023-05-24T18:30:56.529Z,2.83
2023-05-24T18:33:24.721Z,3.50
2023-05-24T18:35:51.867Z,3.13
2023-05-24T18:38:19.002Z,4.10
2023-05-24T18:40:45.959Z,3.13
2023-05-24T18:43:12.943Z,3.30
2023-05-24T18:45:40.007Z,3.10
2023-05-24T18:48:08.101Z,2.63
2023-05-24T18:50:35.225Z,3.40
2023-05-24T18:53:02.255Z,3.73
2023-05-24T18:55:29.245Z,4.63
2023-05-24T18:57:56.300Z,3.20
2023-05-24T19:00:24.585Z,3.30
2023-05-24T19:02:51.939Z,5.67
2023-05-24T19:05:20.236Z,3.73
2023-05-24T19:07:47.261Z,2.90
2023-05-24T19:10:15.432Z,3.67
2023-05-24T19:12:42.445Z,3.33
2023-05-24T19:15:09.768Z,2.93
2023-05-24T19:17:36.846Z,2.63
2023-05-24T19:20:04.120Z,2.97
2023-05-24T19:22:31.176Z,2.60
2023-05-24T19:24:58.203Z,3.33
2023-05-24T19:27:25.266Z,2.77
2023-05-24T19:29:52.322Z,3.50
2023-05-24T19:32:20.589Z,3.20
2023-05-24T19:34:47.870Z,2.90
2023-05-24T19:37:15.921Z,2.83
2023-05-24T19:39:42.957Z,3.37
2023-05-24T19:42:11.090Z,2.63
2023-05-24T19:44:38.164Z,2.83
2023-05-24T19:47:05.462Z,2.87
2023-05-24T19:49:32.519Z,3.03
2023-05-24T19:51:59.453Z,3.53
2023-05-24T19:54:26.526Z,3.20
2023-05-24T19:56:55.243Z,2.70
2023-05-24T19:59:22.282Z,3.37
2023-05-24T20:01:49.657Z,3.23
2023-05-24T20:04:16.750Z,3.47
2023-05-24T20:06:43.829Z,3.00
2023-05-24T20:09:12.107Z,2.53
2023-05-24T20:11:39.168Z,3.10
2023-05-24T20:14:06.132Z,2.93
2023-05-24T20:16:33.215Z,3.63
2023-05-24T20:19:00.252Z,3.20
2023-05-24T20:21:27.321Z,2.70
2023-05-24T20:23:57.958Z,3.37
2023-05-24T20:26:26.187Z,3.13
2023-05-24T20:28:53.195Z,3.03
2023-05-24T20:31:20.205Z,3.03
2023-05-24T20:33:47.340Z,3.43
2023-05-24T20:36:15.265Z,3.20
2023-05-24T20:38:42.345Z,3.67
2023-05-24T20:41:09.344Z,2.90
2023-05-24T20:43:36.340Z,3.70
2023-05-24T20:46:03.383Z,2.97
2023-05-24T20:50:57.860Z,3.03
2023-05-24T20:53:24.936Z,3.33
2023-05-24T20:55:52.048Z,3.37
2023-05-24T20:58:19.087Z,3.07
2023-05-24T21:00:46.220Z,2.90
2023-05-24T21:03:13.341Z,3.20
2023-05-24T21:05:40.599Z,2.97
2023-05-24T21:08:07.760Z,3.43
2023-05-24T21:10:35.194Z,3.40
2023-05-24T21:13:02.480Z,3.97
2023-05-24T21:15:29.530Z,3.40
2023-05-24T21:17:56.627Z,3.53
2023-05-24T21:20:23.931Z,3.97
2023-05-24T21:22:50.974Z,3.47
2023-05-24T21:25:17.944Z,3.60
2023-05-24T21:27:44.937Z,3.37
2023-05-24T21:30:12.575Z,3.27
2023-05-24T21:32:39.967Z,3.03
2023-05-24T21:35:07.982Z,4.13
2023-05-24T21:37:35.232Z,3.50
2023-05-24T21:40:02.277Z,3.60
2023-05-24T21:42:29.342Z,3.80
2023-05-24T21:44:56.389Z,4.00
2023-05-24T21:47:23.396Z,3.60
2023-05-24T21:49:51.143Z,4.93
2023-05-24T21:52:18.234Z,4.13
2023-05-24T21:54:45.339Z,3.80
2023-05-24T21:57:12.608Z,4.37
2023-05-24T21:59:39.582Z,3.63
2023-05-24T22:02:06.740Z,3.97
2023-05-24T22:04:33.794Z,3.60
2023-05-24T22:07:01.006Z,3.90
2023-05-24T22:09:28.009Z,3.67
2023-05-24T22:11:55.010Z,4.00
2023-05-24T22:14:22.049Z,4.07
2023-05-24T22:16:49.482Z,4.40
2023-05-24T22:19:20.427Z,4.10
2023-05-24T22:21:56.388Z,4.10
2023-05-24T22:24:23.451Z,3.97
2023-05-24T22:26:50.677Z,4.17
2023-05-24T22:29:17.647Z,4.40
2023-05-24T22:31:44.692Z,3.87
2023-05-24T22:34:12.099Z,3.73
2023-05-24T22:36:39.336Z,4.63
2023-05-24T22:39:06.375Z,3.77
2023-05-24T22:41:33.374Z,3.40
2023-05-24T22:44:00.496Z,4.60
2023-05-24T22:46:27.590Z,3.87
2023-05-24T22:49:13.346Z,4.00
2023-05-24T22:51:44.402Z,3.53
2023-05-24T22:54:11.876Z,3.50
2023-05-24T22:56:39.271Z,3.70
2023-05-24T22:59:07.131Z,3.80
2023-05-24T23:01:35.261Z,4.13
2023-05-24T23:04:18.854Z,3.70
2023-05-24T23:06:48.048Z,3.13
2023-05-24T23:09:15.127Z,3.97
2023-05-24T23:11:43.039Z,3.50
2023-05-24T23:14:11.582Z,3.80
2023-05-24T23:16:45.703Z,3.67
2023-05-24T23:19:19.007Z,3.80
2023-05-24T23:21:46.303Z,4.20
2023-05-24T23:24:16.057Z,3.33
2023-05-24T23:26:43.150Z,3.27
2023-05-24T23:29:10.666Z,3.50
2023-05-24T23:31:37.830Z,3.50
2023-05-24T23:34:05.597Z,4.30
2023-05-24T23:36:33.898Z,3.50
2023-05-24T23:39:00.874Z,3.60
2023-05-24T23:41:27.949Z,3.47
2023-05-24T23:43:54.984Z,3.67
2023-05-24T23:46:21.944Z,4.13
2023-05-24T23:48:49.014Z,4.03
2023-05-24T23:51:15.987Z,3.27
2023-05-24T23:53:42.968Z,3.43
2023-05-24T23:56:09.971Z,3.50
2023-05-24T23:58:37.746Z,3.50
